sensor_id;sensor_type;location;lat;lon;timestamp;P1;durP1;ratioP1;P2;durP2;ratioP2
57746;SDS011;43580;44.014;20.466;2023-07-29T00:01:47;6.88;;;4.95;;
57746;SDS011;43580;44.014;20.466;2023-07-29T00:04:17;8.82;;;5.10;;
57746;SDS011;43580;44.014;20.466;2023-07-29T00:06:43;7.03;;;4.45;;
57746;SDS011;43580;44.014;20.466;2023-07-29T00:09:09;10.60;;;4.60;;
57746;SDS011;43580;44.014;20.466;2023-07-29T00:11:36;6.82;;;4.50;;
57746;SDS011;43580;44.014;20.466;2023-07-29T00:14:02;7.50;;;4.25;;
57746;SDS011;43580;44.014;20.466;2023-07-29T00:16:28;8.25;;;4.25;;
57746;SDS011;43580;44.014;20.466;2023-07-29T00:18:54;7.60;;;4.03;;
57746;SDS011;43580;44.014;20.466;2023-07-29T00:21:20;7.80;;;4.22;;
57746;SDS011;43580;44.014;20.466;2023-07-29T00:23:46;6.97;;;3.92;;
57746;SDS011;43580;44.014;20.466;2023-07-29T00:26:12;8.77;;;4.20;;
57746;SDS011;43580;44.014;20.466;2023-07-29T00:28:38;8.43;;;4.45;;
57746;SDS011;43580;44.014;20.466;2023-07-29T00:31:04;9.45;;;4.20;;
57746;SDS011;43580;44.014;20.466;2023-07-29T00:33:30;10.40;;;4.15;;
57746;SDS011;43580;44.014;20.466;2023-07-29T00:35:59;4.40;;;3.55;;
57746;SDS011;43580;44.014;20.466;2023-07-29T00:38:28;8.75;;;4.30;;
57746;SDS011;43580;44.014;20.466;2023-07-29T00:40:57;7.32;;;4.22;;
57746;SDS011;43580;44.014;20.466;2023-07-29T00:43:24;5.97;;;3.80;;
57746;SDS011;43580;44.014;20.466;2023-07-29T00:45:50;7.38;;;3.75;;
57746;SDS011;43580;44.014;20.466;2023-07-29T00:48:16;7.15;;;4.13;;
57746;SDS011;43580;44.014;20.466;2023-07-29T00:50:42;6.90;;;3.88;;
57746;SDS011;43580;44.014;20.466;2023-07-29T00:53:08;5.95;;;3.78;;
57746;SDS011;43580;44.014;20.466;2023-07-29T00:55:34;5.50;;;3.80;;
57746;SDS011;43580;44.014;20.466;2023-07-29T00:58:03;5.50;;;3.67;;
57746;SDS011;43580;44.014;20.466;2023-07-29T01:00:29;8.02;;;3.88;;
57746;SDS011;43580;44.014;20.466;2023-07-29T01:02:56;7.40;;;3.95;;
57746;SDS011;43580;44.014;20.466;2023-07-29T01:05:22;5.88;;;3.92;;
57746;SDS011;43580;44.014;20.466;2023-07-29T01:07:59;6.38;;;4.00;;
57746;SDS011;43580;44.014;20.466;2023-07-29T01:10:30;5.07;;;3.55;;
57746;SDS011;43580;44.014;20.466;2023-07-29T01:13:04;7.33;;;4.10;;
57746;SDS011;43580;44.014;20.466;2023-07-29T01:18:08;5.88;;;3.63;;
57746;SDS011;43580;44.014;20.466;2023-07-29T01:20:37;4.85;;;3.70;;
57746;SDS011;43580;44.014;20.466;2023-07-29T01:23:03;6.25;;;3.90;;
57746;SDS011;43580;44.014;20.466;2023-07-29T01:25:29;5.47;;;4.00;;
57746;SDS011;43580;44.014;20.466;2023-07-29T01:27:55;5.18;;;3.70;;
57746;SDS011;43580;44.014;20.466;2023-07-29T01:30:22;4.90;;;3.38;;
57746;SDS011;43580;44.014;20.466;2023-07-29T01:35:28;6.78;;;3.80;;
57746;SDS011;43580;44.014;20.466;2023-07-29T01:38:40;8.65;;;4.25;;
57746;SDS011;43580;44.014;20.466;2023-07-29T01:40:40;6.13;;;3.95;;
57746;SDS011;43580;44.014;20.466;2023-07-29T01:43:07;5.22;;;3.75;;
57746;SDS011;43580;44.014;20.466;2023-07-29T01:45:34;7.35;;;3.90;;
57746;SDS011;43580;44.014;20.466;2023-07-29T01:48:06;5.60;;;4.03;;
57746;SDS011;43580;44.014;20.466;2023-07-29T01:50:33;5.63;;;3.75;;
57746;SDS011;43580;44.014;20.466;2023-07-29T01:52:59;8.00;;;4.30;;
57746;SDS011;43580;44.014;20.466;2023-07-29T01:55:25;5.22;;;4.00;;
57746;SDS011;43580;44.014;20.466;2023-07-29T01:57:51;7.80;;;3.92;;
57746;SDS011;43580;44.014;20.466;2023-07-29T02:00:18;5.40;;;3.90;;
57746;SDS011;43580;44.014;20.466;2023-07-29T02:02:44;5.78;;;3.95;;
57746;SDS011;43580;44.014;20.466;2023-07-29T02:05:10;9.00;;;4.45;;
57746;SDS011;43580;44.014;20.466;2023-07-29T02:07:36;9.35;;;4.18;;
57746;SDS011;43580;44.014;20.466;2023-07-29T02:10:05;6.65;;;3.95;;
57746;SDS011;43580;44.014;20.466;2023-07-29T02:12:31;5.53;;;4.20;;
57746;SDS011;43580;44.014;20.466;2023-07-29T02:14:57;7.40;;;4.05;;
57746;SDS011;43580;44.014;20.466;2023-07-29T02:17:23;7.53;;;4.30;;
57746;SDS011;43580;44.014;20.466;2023-07-29T02:19:51;7.63;;;3.83;;
57746;SDS011;43580;44.014;20.466;2023-07-29T02:22:19;5.97;;;4.43;;
57746;SDS011;43580;44.014;20.466;2023-07-29T02:24:45;7.10;;;4.22;;
57746;SDS011;43580;44.014;20.466;2023-07-29T02:27:11;7.15;;;4.32;;
57746;SDS011;43580;44.014;20.466;2023-07-29T02:29:37;8.48;;;4.60;;
57746;SDS011;43580;44.014;20.466;2023-07-29T02:32:04;7.32;;;4.00;;
57746;SDS011;43580;44.014;20.466;2023-07-29T02:34:30;9.80;;;4.28;;
57746;SDS011;43580;44.014;20.466;2023-07-29T02:36:56;7.25;;;4.53;;
57746;SDS011;43580;44.014;20.466;2023-07-29T02:39:22;7.63;;;4.32;;
57746;SDS011;43580;44.014;20.466;2023-07-29T02:41:48;6.55;;;4.55;;
57746;SDS011;43580;44.014;20.466;2023-07-29T02:44:17;6.47;;;4.65;;
57746;SDS011;43580;44.014;20.466;2023-07-29T02:46:46;6.20;;;4.93;;
57746;SDS011;43580;44.014;20.466;2023-07-29T02:49:12;6.70;;;4.97;;
57746;SDS011;43580;44.014;20.466;2023-07-29T02:51:38;5.03;;;4.00;;
57746;SDS011;43580;44.014;20.466;2023-07-29T02:54:04;7.18;;;4.15;;
57746;SDS011;43580;44.014;20.466;2023-07-29T02:56:30;9.38;;;4.45;;
57746;SDS011;43580;44.014;20.466;2023-07-29T02:58:56;7.00;;;4.43;;
57746;SDS011;43580;44.014;20.466;2023-07-29T03:01:22;6.55;;;4.07;;
57746;SDS011;43580;44.014;20.466;2023-07-29T03:03:50;4.90;;;4.03;;
57746;SDS011;43580;44.014;20.466;2023-07-29T03:06:16;6.50;;;4.07;;
57746;SDS011;43580;44.014;20.466;2023-07-29T03:08:42;6.47;;;4.35;;
57746;SDS011;43580;44.014;20.466;2023-07-29T03:11:10;5.78;;;4.40;;
57746;SDS011;43580;44.014;20.466;2023-07-29T03:13:36;9.95;;;4.55;;
57746;SDS011;43580;44.014;20.466;2023-07-29T03:16:06;6.00;;;4.85;;
57746;SDS011;43580;44.014;20.466;2023-07-29T03:18:32;5.50;;;4.25;;
57746;SDS011;43580;44.014;20.466;2023-07-29T03:20:58;6.15;;;4.30;;
57746;SDS011;43580;44.014;20.466;2023-07-29T03:23:24;8.18;;;4.40;;
57746;SDS011;43580;44.014;20.466;2023-07-29T03:25:50;8.93;;;4.28;;
57746;SDS011;43580;44.014;20.466;2023-07-29T03:28:18;6.63;;;4.32;;
57746;SDS011;43580;44.014;20.466;2023-07-29T03:30:44;6.18;;;4.65;;
57746;SDS011;43580;44.014;20.466;2023-07-29T03:33:10;5.68;;;4.43;;
57746;SDS011;43580;44.014;20.466;2023-07-29T03:35:36;9.88;;;4.95;;
57746;SDS011;43580;44.014;20.466;2023-07-29T03:38:05;5.93;;;4.72;;
57746;SDS011;43580;44.014;20.466;2023-07-29T03:40:31;6.55;;;4.93;;
57746;SDS011;43580;44.014;20.466;2023-07-29T03:42:57;6.82;;;4.97;;
57746;SDS011;43580;44.014;20.466;2023-07-29T03:45:23;7.22;;;5.20;;
57746;SDS011;43580;44.014;20.466;2023-07-29T03:47:49;6.95;;;5.35;;
57746;SDS011;43580;44.014;20.466;2023-07-29T03:50:15;7.05;;;4.82;;
57746;SDS011;43580;44.014;20.466;2023-07-29T03:52:46;7.22;;;5.10;;
57746;SDS011;43580;44.014;20.466;2023-07-29T03:55:12;6.85;;;5.00;;
57746;SDS011;43580;44.014;20.466;2023-07-29T03:57:38;6.47;;;5.38;;
57746;SDS011;43580;44.014;20.466;2023-07-29T04:00:04;7.20;;;5.25;;
57746;SDS011;43580;44.014;20.466;2023-07-29T04:02:31;10.07;;;5.45;;
57746;SDS011;43580;44.014;20.466;2023-07-29T04:04:57;8.90;;;5.18;;
57746;SDS011;43580;44.014;20.466;2023-07-29T04:07:23;7.78;;;5.03;;
57746;SDS011;43580;44.014;20.466;2023-07-29T04:09:51;7.05;;;5.15;;
57746;SDS011;43580;44.014;20.466;2023-07-29T04:12:17;8.70;;;4.47;;
57746;SDS011;43580;44.014;20.466;2023-07-29T04:14:46;8.52;;;4.78;;
57746;SDS011;43580;44.014;20.466;2023-07-29T04:17:12;6.30;;;4.53;;
57746;SDS011;43580;44.014;20.466;2023-07-29T04:19:38;7.20;;;4.68;;
57746;SDS011;43580;44.014;20.466;2023-07-29T04:22:04;8.93;;;4.82;;
57746;SDS011;43580;44.014;20.466;2023-07-29T04:24:33;7.50;;;5.07;;
57746;SDS011;43580;44.014;20.466;2023-07-29T04:27:06;6.90;;;4.78;;
57746;SDS011;43580;44.014;20.466;2023-07-29T04:29:32;6.28;;;4.68;;
57746;SDS011;43580;44.014;20.466;2023-07-29T04:32:00;8.73;;;4.60;;
57746;SDS011;43580;44.014;20.466;2023-07-29T04:34:26;6.20;;;4.60;;
57746;SDS011;43580;44.014;20.466;2023-07-29T04:36:55;7.03;;;4.90;;
57746;SDS011;43580;44.014;20.466;2023-07-29T04:39:21;6.97;;;4.70;;
57746;SDS011;43580;44.014;20.466;2023-07-29T04:41:47;6.13;;;5.05;;
57746;SDS011;43580;44.014;20.466;2023-07-29T04:44:13;9.15;;;5.60;;
57746;SDS011;43580;44.014;20.466;2023-07-29T04:46:39;9.30;;;5.90;;
57746;SDS011;43580;44.014;20.466;2023-07-29T04:49:05;10.40;;;5.47;;
57746;SDS011;43580;44.014;20.466;2023-07-29T04:51:31;7.03;;;5.07;;
57746;SDS011;43580;44.014;20.466;2023-07-29T04:53:58;9.48;;;4.88;;
57746;SDS011;43580;44.014;20.466;2023-07-29T04:56:24;12.13;;;5.82;;
57746;SDS011;43580;44.014;20.466;2023-07-29T04:58:52;9.98;;;5.20;;
57746;SDS011;43580;44.014;20.466;2023-07-29T05:01:21;8.30;;;5.20;;
57746;SDS011;43580;44.014;20.466;2023-07-29T05:03:47;6.47;;;4.97;;
57746;SDS011;43580;44.014;20.466;2023-07-29T05:06:13;8.05;;;4.85;;
57746;SDS011;43580;44.014;20.466;2023-07-29T05:08:39;13.75;;;4.80;;
57746;SDS011;43580;44.014;20.466;2023-07-29T05:11:05;13.15;;;6.20;;
57746;SDS011;43580;44.014;20.466;2023-07-29T05:13:31;14.38;;;8.52;;
57746;SDS011;43580;44.014;20.466;2023-07-29T05:15:57;12.70;;;8.10;;
57746;SDS011;43580;44.014;20.466;2023-07-29T05:18:24;9.00;;;6.50;;
57746;SDS011;43580;44.014;20.466;2023-07-29T05:20:50;9.85;;;6.30;;
57746;SDS011;43580;44.014;20.466;2023-07-29T05:23:16;8.93;;;5.55;;
57746;SDS011;43580;44.014;20.466;2023-07-29T05:25:42;15.02;;;5.55;;
57746;SDS011;43580;44.014;20.466;2023-07-29T05:28:08;7.65;;;5.40;;
57746;SDS011;43580;44.014;20.466;2023-07-29T05:30:34;6.97;;;5.03;;
57746;SDS011;43580;44.014;20.466;2023-07-29T05:33:02;10.82;;;5.43;;
57746;SDS011;43580;44.014;20.466;2023-07-29T05:35:29;10.23;;;5.70;;
57746;SDS011;43580;44.014;20.466;2023-07-29T05:37:56;9.65;;;5.70;;
57746;SDS011;43580;44.014;20.466;2023-07-29T05:40:22;7.45;;;5.43;;
57746;SDS011;43580;44.014;20.466;2023-07-29T05:42:48;7.50;;;5.38;;
57746;SDS011;43580;44.014;20.466;2023-07-29T05:45:16;7.80;;;5.43;;
57746;SDS011;43580;44.014;20.466;2023-07-29T05:47:42;7.40;;;5.40;;
57746;SDS011;43580;44.014;20.466;2023-07-29T05:50:08;12.57;;;5.43;;
57746;SDS011;43580;44.014;20.466;2023-07-29T05:52:35;9.00;;;5.00;;
57746;SDS011;43580;44.014;20.466;2023-07-29T05:55:01;9.65;;;5.18;;
57746;SDS011;43580;44.014;20.466;2023-07-29T05:57:27;8.65;;;5.03;;
57746;SDS011;43580;44.014;20.466;2023-07-29T05:59:56;7.85;;;5.38;;
57746;SDS011;43580;44.014;20.466;2023-07-29T06:02:22;10.80;;;5.35;;
57746;SDS011;43580;44.014;20.466;2023-07-29T06:04:48;6.90;;;5.00;;
57746;SDS011;43580;44.014;20.466;2023-07-29T06:07:14;7.18;;;5.07;;
57746;SDS011;43580;44.014;20.466;2023-07-29T06:09:40;17.58;;;7.10;;
57746;SDS011;43580;44.014;20.466;2023-07-29T06:12:14;8.40;;;5.07;;
57746;SDS011;43580;44.014;20.466;2023-07-29T06:14:40;9.95;;;5.47;;
57746;SDS011;43580;44.014;20.466;2023-07-29T06:17:06;12.35;;;6.82;;
57746;SDS011;43580;44.014;20.466;2023-07-29T06:19:32;10.80;;;5.85;;
57746;SDS011;43580;44.014;20.466;2023-07-29T06:22:03;10.38;;;5.38;;
57746;SDS011;43580;44.014;20.466;2023-07-29T06:24:30;7.85;;;4.80;;
57746;SDS011;43580;44.014;20.466;2023-07-29T06:26:57;7.90;;;4.88;;
57746;SDS011;43580;44.014;20.466;2023-07-29T06:29:23;8.05;;;5.28;;
57746;SDS011;43580;44.014;20.466;2023-07-29T06:31:49;7.32;;;4.65;;
57746;SDS011;43580;44.014;20.466;2023-07-29T06:34:16;9.40;;;4.53;;
57746;SDS011;43580;44.014;20.466;2023-07-29T06:36:47;9.00;;;4.90;;
57746;SDS011;43580;44.014;20.466;2023-07-29T06:39:13;7.60;;;4.95;;
57746;SDS011;43580;44.014;20.466;2023-07-29T06:41:39;6.03;;;4.85;;
57746;SDS011;43580;44.014;20.466;2023-07-29T06:44:05;8.18;;;4.60;;
57746;SDS011;43580;44.014;20.466;2023-07-29T06:46:31;6.00;;;4.30;;
57746;SDS011;43580;44.014;20.466;2023-07-29T06:48:57;7.78;;;4.75;;
57746;SDS011;43580;44.014;20.466;2023-07-29T06:51:23;5.90;;;4.57;;
57746;SDS011;43580;44.014;20.466;2023-07-29T06:53:54;8.02;;;4.72;;
57746;SDS011;43580;44.014;20.466;2023-07-29T06:56:20;7.80;;;4.38;;
57746;SDS011;43580;44.014;20.466;2023-07-29T06:58:46;10.23;;;4.80;;
57746;SDS011;43580;44.014;20.466;2023-07-29T07:01:12;9.25;;;5.07;;
57746;SDS011;43580;44.014;20.466;2023-07-29T07:03:38;6.47;;;4.70;;
57746;SDS011;43580;44.014;20.466;2023-07-29T07:06:04;7.53;;;4.70;;
57746;SDS011;43580;44.014;20.466;2023-07-29T07:08:30;7.88;;;4.78;;
57746;SDS011;43580;44.014;20.466;2023-07-29T07:10:57;6.40;;;4.68;;
57746;SDS011;43580;44.014;20.466;2023-07-29T07:13:25;6.65;;;4.22;;
57746;SDS011;43580;44.014;20.466;2023-07-29T07:15:54;7.78;;;4.20;;
57746;SDS011;43580;44.014;20.466;2023-07-29T07:18:20;5.78;;;4.20;;
57746;SDS011;43580;44.014;20.466;2023-07-29T07:20:49;6.85;;;4.00;;
57746;SDS011;43580;44.014;20.466;2023-07-29T07:23:16;6.45;;;4.90;;
57746;SDS011;43580;44.014;20.466;2023-07-29T07:25:42;7.15;;;4.68;;
57746;SDS011;43580;44.014;20.466;2023-07-29T07:28:08;7.13;;;4.43;;
57746;SDS011;43580;44.014;20.466;2023-07-29T07:30:34;5.88;;;4.53;;
57746;SDS011;43580;44.014;20.466;2023-07-29T07:33:00;10.52;;;4.63;;
57746;SDS011;43580;44.014;20.466;2023-07-29T07:35:27;12.38;;;4.60;;
57746;SDS011;43580;44.014;20.466;2023-07-29T07:37:53;7.28;;;4.50;;
57746;SDS011;43580;44.014;20.466;2023-07-29T07:40:19;10.18;;;4.50;;
57746;SDS011;43580;44.014;20.466;2023-07-29T07:42:45;6.95;;;4.18;;
57746;SDS011;43580;44.014;20.466;2023-07-29T07:45:11;6.80;;;5.10;;
57746;SDS011;43580;44.014;20.466;2023-07-29T07:47:37;5.00;;;3.90;;
57746;SDS011;43580;44.014;20.466;2023-07-29T07:50:03;5.43;;;4.25;;
57746;SDS011;43580;44.014;20.466;2023-07-29T07:52:30;6.55;;;4.18;;
57746;SDS011;43580;44.014;20.466;2023-07-29T07:54:56;5.65;;;4.43;;
57746;SDS011;43580;44.014;20.466;2023-07-29T07:57:22;9.70;;;4.75;;
57746;SDS011;43580;44.014;20.466;2023-07-29T07:59:48;8.38;;;4.20;;
57746;SDS011;43580;44.014;20.466;2023-07-29T08:02:15;6.00;;;4.20;;
57746;SDS011;43580;44.014;20.466;2023-07-29T08:04:41;6.95;;;4.60;;
57746;SDS011;43580;44.014;20.466;2023-07-29T08:07:08;6.00;;;3.95;;
57746;SDS011;43580;44.014;20.466;2023-07-29T08:09:34;5.80;;;3.88;;
57746;SDS011;43580;44.014;20.466;2023-07-29T08:12:00;7.65;;;4.45;;
57746;SDS011;43580;44.014;20.466;2023-07-29T08:14:26;7.47;;;4.00;;
57746;SDS011;43580;44.014;20.466;2023-07-29T08:16:52;7.25;;;3.85;;
57746;SDS011;43580;44.014;20.466;2023-07-29T08:19:18;6.32;;;4.10;;
57746;SDS011;43580;44.014;20.466;2023-07-29T08:21:44;11.20;;;4.72;;
57746;SDS011;43580;44.014;20.466;2023-07-29T08:24:10;5.60;;;4.30;;
57746;SDS011;43580;44.014;20.466;2023-07-29T08:26:36;6.60;;;3.97;;
57746;SDS011;43580;44.014;20.466;2023-07-29T08:29:03;5.18;;;3.83;;
57746;SDS011;43580;44.014;20.466;2023-07-29T08:31:29;8.15;;;4.43;;
57746;SDS011;43580;44.014;20.466;2023-07-29T08:33:58;8.00;;;4.15;;
57746;SDS011;43580;44.014;20.466;2023-07-29T08:36:27;6.93;;;4.15;;
57746;SDS011;43580;44.014;20.466;2023-07-29T08:38:53;7.95;;;4.43;;
57746;SDS011;43580;44.014;20.466;2023-07-29T08:44:20;6.00;;;4.05;;
57746;SDS011;43580;44.014;20.466;2023-07-29T08:46:39;7.93;;;4.25;;
57746;SDS011;43580;44.014;20.466;2023-07-29T08:49:05;9.35;;;5.10;;
57746;SDS011;43580;44.014;20.466;2023-07-29T08:51:31;7.75;;;5.53;;
57746;SDS011;43580;44.014;20.466;2023-07-29T08:53:58;12.65;;;5.00;;
57746;SDS011;43580;44.014;20.466;2023-07-29T08:56:24;11.32;;;4.82;;
57746;SDS011;43580;44.014;20.466;2023-07-29T08:58:52;8.30;;;4.47;;
57746;SDS011;43580;44.014;20.466;2023-07-29T09:01:18;6.70;;;4.60;;
57746;SDS011;43580;44.014;20.466;2023-07-29T09:03:44;9.93;;;4.75;;
57746;SDS011;43580;44.014;20.466;2023-07-29T09:06:10;6.45;;;4.28;;
57746;SDS011;43580;44.014;20.466;2023-07-29T09:08:37;6.53;;;4.38;;
57746;SDS011;43580;44.014;20.466;2023-07-29T09:11:03;6.50;;;4.97;;
57746;SDS011;43580;44.014;20.466;2023-07-29T09:13:29;10.63;;;4.15;;
57746;SDS011;43580;44.014;20.466;2023-07-29T09:15:56;6.13;;;4.10;;
57746;SDS011;43580;44.014;20.466;2023-07-29T09:18:23;8.82;;;4.63;;
57746;SDS011;43580;44.014;20.466;2023-07-29T09:20:51;9.82;;;4.10;;
57746;SDS011;43580;44.014;20.466;2023-07-29T09:23:17;8.02;;;3.72;;
57746;SDS011;43580;44.014;20.466;2023-07-29T09:25:46;7.60;;;4.28;;
57746;SDS011;43580;44.014;20.466;2023-07-29T09:28:13;6.57;;;3.67;;
57746;SDS011;43580;44.014;20.466;2023-07-29T09:30:40;8.32;;;4.18;;
57746;SDS011;43580;44.014;20.466;2023-07-29T09:33:08;6.63;;;4.22;;
57746;SDS011;43580;44.014;20.466;2023-07-29T09:35:35;5.43;;;4.00;;
57746;SDS011;43580;44.014;20.466;2023-07-29T09:38:05;7.20;;;4.20;;
57746;SDS011;43580;44.014;20.466;2023-07-29T09:40:35;5.53;;;3.72;;
57746;SDS011;43580;44.014;20.466;2023-07-29T09:43:02;6.57;;;3.70;;
57746;SDS011;43580;44.014;20.466;2023-07-29T09:45:29;6.57;;;4.00;;
57746;SDS011;43580;44.014;20.466;2023-07-29T09:47:56;6.22;;;4.30;;
57746;SDS011;43580;44.014;20.466;2023-07-29T09:50:24;6.18;;;3.53;;
57746;SDS011;43580;44.014;20.466;2023-07-29T09:52:50;4.97;;;3.50;;
57746;SDS011;43580;44.014;20.466;2023-07-29T09:55:18;8.43;;;4.75;;
57746;SDS011;43580;44.014;20.466;2023-07-29T09:57:44;5.47;;;4.07;;
57746;SDS011;43580;44.014;20.466;2023-07-29T10:00:11;7.35;;;4.20;;
57746;SDS011;43580;44.014;20.466;2023-07-29T10:02:42;5.93;;;4.00;;
57746;SDS011;43580;44.014;20.466;2023-07-29T10:05:08;7.07;;;4.50;;
57746;SDS011;43580;44.014;20.466;2023-07-29T10:07:38;8.88;;;4.15;;
57746;SDS011;43580;44.014;20.466;2023-07-29T10:10:05;9.02;;;4.22;;
57746;SDS011;43580;44.014;20.466;2023-07-29T10:12:31;6.82;;;4.15;;
57746;SDS011;43580;44.014;20.466;2023-07-29T10:15:01;6.72;;;4.15;;
57746;SDS011;43580;44.014;20.466;2023-07-29T10:17:28;6.43;;;4.53;;
57746;SDS011;43580;44.014;20.466;2023-07-29T10:19:55;6.90;;;4.32;;
57746;SDS011;43580;44.014;20.466;2023-07-29T10:22:24;5.90;;;3.92;;
57746;SDS011;43580;44.014;20.466;2023-07-29T10:24:56;7.65;;;4.28;;
57746;SDS011;43580;44.014;20.466;2023-07-29T10:27:25;8.20;;;4.30;;
57746;SDS011;43580;44.014;20.466;2023-07-29T10:29:55;6.18;;;4.20;;
57746;SDS011;43580;44.014;20.466;2023-07-29T10:32:23;7.50;;;4.25;;
57746;SDS011;43580;44.014;20.466;2023-07-29T10:34:51;7.38;;;4.40;;
57746;SDS011;43580;44.014;20.466;2023-07-29T10:37:20;7.63;;;4.07;;
57746;SDS011;43580;44.014;20.466;2023-07-29T10:39:56;5.72;;;4.25;;
57746;SDS011;43580;44.014;20.466;2023-07-29T10:42:22;8.10;;;4.82;;
57746;SDS011;43580;44.014;20.466;2023-07-29T10:44:49;5.65;;;4.10;;
57746;SDS011;43580;44.014;20.466;2023-07-29T10:47:16;7.03;;;4.38;;
57746;SDS011;43580;44.014;20.466;2023-07-29T10:49:42;5.30;;;3.80;;
57746;SDS011;43580;44.014;20.466;2023-07-29T10:52:12;6.88;;;4.28;;
57746;SDS011;43580;44.014;20.466;2023-07-29T10:54:50;5.15;;;4.05;;
57746;SDS011;43580;44.014;20.466;2023-07-29T10:57:38;7.05;;;4.13;;
57746;SDS011;43580;44.014;20.466;2023-07-29T11:00:03;5.22;;;4.03;;
57746;SDS011;43580;44.014;20.466;2023-07-29T11:02:31;6.82;;;3.83;;
57746;SDS011;43580;44.014;20.466;2023-07-29T11:04:57;7.57;;;3.90;;
57746;SDS011;43580;44.014;20.466;2023-07-29T11:07:24;6.65;;;3.80;;
57746;SDS011;43580;44.014;20.466;2023-07-29T11:09:54;6.68;;;4.45;;
57746;SDS011;43580;44.014;20.466;2023-07-29T11:15:04;6.43;;;4.60;;
57746;SDS011;43580;44.014;20.466;2023-07-29T11:17:33;6.28;;;4.43;;
57746;SDS011;43580;44.014;20.466;2023-07-29T11:20:03;8.95;;;4.18;;
57746;SDS011;43580;44.014;20.466;2023-07-29T11:22:29;6.32;;;4.05;;
57746;SDS011;43580;44.014;20.466;2023-07-29T11:24:56;5.22;;;4.18;;
57746;SDS011;43580;44.014;20.466;2023-07-29T11:27:24;6.22;;;3.92;;
57746;SDS011;43580;44.014;20.466;2023-07-29T11:29:57;5.85;;;4.05;;
57746;SDS011;43580;44.014;20.466;2023-07-29T11:32:23;5.70;;;4.30;;
57746;SDS011;43580;44.014;20.466;2023-07-29T11:34:50;6.63;;;4.50;;
57746;SDS011;43580;44.014;20.466;2023-07-29T11:37:16;6.25;;;4.13;;
57746;SDS011;43580;44.014;20.466;2023-07-29T11:39:43;7.35;;;4.88;;
57746;SDS011;43580;44.014;20.466;2023-07-29T11:42:13;6.60;;;4.30;;
57746;SDS011;43580;44.014;20.466;2023-07-29T11:44:40;5.60;;;4.32;;
57746;SDS011;43580;44.014;20.466;2023-07-29T11:47:09;8.57;;;5.07;;
57746;SDS011;43580;44.014;20.466;2023-07-29T11:49:37;7.15;;;5.10;;
57746;SDS011;43580;44.014;20.466;2023-07-29T11:52:05;9.45;;;5.47;;
57746;SDS011;43580;44.014;20.466;2023-07-29T11:54:31;9.82;;;5.15;;
57746;SDS011;43580;44.014;20.466;2023-07-29T11:56:57;7.50;;;4.53;;
57746;SDS011;43580;44.014;20.466;2023-07-29T11:59:24;9.32;;;4.43;;
57746;SDS011;43580;44.014;20.466;2023-07-29T12:01:50;6.70;;;4.95;;
57746;SDS011;43580;44.014;20.466;2023-07-29T12:04:16;10.68;;;5.93;;
57746;SDS011;43580;44.014;20.466;2023-07-29T12:06:42;6.45;;;5.10;;
57746;SDS011;43580;44.014;20.466;2023-07-29T12:09:08;17.08;;;8.23;;
57746;SDS011;43580;44.014;20.466;2023-07-29T12:11:34;7.50;;;4.90;;
57746;SDS011;43580;44.014;20.466;2023-07-29T12:14:01;7.18;;;4.72;;
57746;SDS011;43580;44.014;20.466;2023-07-29T12:16:27;5.57;;;4.63;;
57746;SDS011;43580;44.014;20.466;2023-07-29T12:19:00;10.38;;;4.63;;
57746;SDS011;43580;44.014;20.466;2023-07-29T12:21:26;7.88;;;4.10;;
57746;SDS011;43580;44.014;20.466;2023-07-29T12:23:52;8.85;;;4.53;;
57746;SDS011;43580;44.014;20.466;2023-07-29T12:26:18;7.60;;;4.40;;
57746;SDS011;43580;44.014;20.466;2023-07-29T12:28:47;7.05;;;4.18;;
57746;SDS011;43580;44.014;20.466;2023-07-29T12:31:13;7.63;;;4.65;;
57746;SDS011;43580;44.014;20.466;2023-07-29T12:33:39;6.45;;;4.30;;
57746;SDS011;43580;44.014;20.466;2023-07-29T12:36:07;6.93;;;4.38;;
57746;SDS011;43580;44.014;20.466;2023-07-29T12:38:33;9.57;;;4.28;;
57746;SDS011;43580;44.014;20.466;2023-07-29T12:40:59;7.05;;;4.68;;
57746;SDS011;43580;44.014;20.466;2023-07-29T12:43:25;6.82;;;4.60;;
57746;SDS011;43580;44.014;20.466;2023-07-29T12:45:51;6.22;;;4.13;;
57746;SDS011;43580;44.014;20.466;2023-07-29T12:48:20;6.80;;;4.28;;
57746;SDS011;43580;44.014;20.466;2023-07-29T12:50:46;11.88;;;4.40;;
57746;SDS011;43580;44.014;20.466;2023-07-29T12:53:12;5.00;;;4.32;;
57746;SDS011;43580;44.014;20.466;2023-07-29T12:55:38;6.53;;;4.30;;
57746;SDS011;43580;44.014;20.466;2023-07-29T12:58:04;6.53;;;4.57;;
57746;SDS011;43580;44.014;20.466;2023-07-29T13:00:33;6.05;;;4.25;;
57746;SDS011;43580;44.014;20.466;2023-07-29T13:02:59;8.13;;;4.10;;
57746;SDS011;43580;44.014;20.466;2023-07-29T13:05:25;6.15;;;4.40;;
57746;SDS011;43580;44.014;20.466;2023-07-29T13:07:51;5.85;;;3.90;;
57746;SDS011;43580;44.014;20.466;2023-07-29T13:10:17;6.60;;;3.95;;
57746;SDS011;43580;44.014;20.466;2023-07-29T13:12:43;5.97;;;4.50;;
57746;SDS011;43580;44.014;20.466;2023-07-29T13:15:12;8.75;;;6.03;;
57746;SDS011;43580;44.014;20.466;2023-07-29T13:17:38;7.47;;;4.70;;
57746;SDS011;43580;44.014;20.466;2023-07-29T13:20:06;9.65;;;5.07;;
57746;SDS011;43580;44.014;20.466;2023-07-29T13:22:35;6.97;;;4.57;;
57746;SDS011;43580;44.014;20.466;2023-07-29T13:25:01;6.28;;;5.15;;
57746;SDS011;43580;44.014;20.466;2023-07-29T13:27:32;9.85;;;6.60;;
57746;SDS011;43580;44.014;20.466;2023-07-29T13:29:58;10.65;;;7.25;;
57746;SDS011;43580;44.014;20.466;2023-07-29T13:32:24;10.48;;;5.90;;
57746;SDS011;43580;44.014;20.466;2023-07-29T13:34:50;7.97;;;4.68;;
57746;SDS011;43580;44.014;20.466;2023-07-29T13:37:19;8.90;;;4.88;;
57746;SDS011;43580;44.014;20.466;2023-07-29T13:39:45;7.93;;;5.65;;
57746;SDS011;43580;44.014;20.466;2023-07-29T13:42:11;11.13;;;6.28;;
57746;SDS011;43580;44.014;20.466;2023-07-29T13:44:37;8.77;;;6.05;;
57746;SDS011;43580;44.014;20.466;2023-07-29T13:47:03;9.70;;;5.50;;
57746;SDS011;43580;44.014;20.466;2023-07-29T13:49:32;11.65;;;5.47;;
57746;SDS011;43580;44.014;20.466;2023-07-29T13:51:58;8.40;;;5.22;;
57746;SDS011;43580;44.014;20.466;2023-07-29T13:54:24;5.93;;;4.43;;
57746;SDS011;43580;44.014;20.466;2023-07-29T13:56:50;9.88;;;4.40;;
57746;SDS011;43580;44.014;20.466;2023-07-29T13:59:18;5.82;;;4.43;;
57746;SDS011;43580;44.014;20.466;2023-07-29T14:01:44;6.18;;;4.35;;
57746;SDS011;43580;44.014;20.466;2023-07-29T14:04:10;12.68;;;4.70;;
57746;SDS011;43580;44.014;20.466;2023-07-29T14:06:36;9.52;;;4.43;;
57746;SDS011;43580;44.014;20.466;2023-07-29T14:09:02;6.97;;;4.78;;
57746;SDS011;43580;44.014;20.466;2023-07-29T14:11:28;5.70;;;4.43;;
57746;SDS011;43580;44.014;20.466;2023-07-29T14:13:57;6.72;;;4.53;;
57746;SDS011;43580;44.014;20.466;2023-07-29T14:16:25;5.68;;;4.30;;
57746;SDS011;43580;44.014;20.466;2023-07-29T14:18:52;9.52;;;4.55;;
57746;SDS011;43580;44.014;20.466;2023-07-29T14:21:18;5.88;;;4.30;;
57746;SDS011;43580;44.014;20.466;2023-07-29T14:23:44;7.95;;;4.68;;
57746;SDS011;43580;44.014;20.466;2023-07-29T14:26:10;9.57;;;5.88;;
57746;SDS011;43580;44.014;20.466;2023-07-29T14:28:36;8.65;;;5.57;;
57746;SDS011;43580;44.014;20.466;2023-07-29T14:31:02;9.70;;;5.50;;
57746;SDS011;43580;44.014;20.466;2023-07-29T14:33:31;6.47;;;4.78;;
57746;SDS011;43580;44.014;20.466;2023-07-29T14:35:57;5.65;;;4.80;;
57746;SDS011;43580;44.014;20.466;2023-07-29T14:38:23;6.13;;;4.57;;
57746;SDS011;43580;44.014;20.466;2023-07-29T14:40:51;7.95;;;4.75;;
57746;SDS011;43580;44.014;20.466;2023-07-29T14:43:19;6.88;;;4.90;;